Home > Products > Valid Products > TAF

000
FTUS44 KHUN 021120
TAFHSV
TAF
KHSV 021120Z 0212/0312 09004KT P6SM SKC
     FM021600 16007KT P6SM SCT045
     FM022200 18009KT P6SM VCSH BKN050 OVC090
     FM030100 15005KT P6SM SCT050 BKN070 BKN250
     FM030700 17007KT P6SM VCTS BKN025 OVC050CB
      TEMPO 0309/0312 VRB20G30KT 3SM TSRA=



000
FTUS44 KHUN 021120
TAFMSL
TAF
KMSL 021120Z 0212/0312 12004KT P6SM SKC
     FM021600 18009KT P6SM SCT045
     FM022100 18009KT P6SM VCSH BKN050 OVC090
     FM030100 16007KT P6SM SCT050 BKN070 BKN250
     FM030500 18008KT P6SM VCTS BKN025 OVC050CB
      TEMPO 0307/0311 VRB20G30KT 3SM TSRA=



000
FTUS44 KHUN 021120
TAFMSL
TAF
KMSL 021120Z 0212/0312 12004KT P6SM SKC
     FM021600 18009KT P6SM SCT045
     FM022100 18009KT P6SM VCSH BKN050 OVC090
     FM030100 16007KT P6SM SCT050 BKN070 BKN250
     FM030500 18008KT P6SM VCTS BKN025 OVC050CB
      TEMPO 0307/0311 VRB20G30KT 3SM TSRA=



000
FTUS44 KHUN 021120
TAFHSV
TAF
KHSV 021120Z 0212/0312 09004KT P6SM SKC
     FM021600 16007KT P6SM SCT045
     FM022200 18009KT P6SM VCSH BKN050 OVC090
     FM030100 15005KT P6SM SCT050 BKN070 BKN250
     FM030700 17007KT P6SM VCTS BKN025 OVC050CB
      TEMPO 0309/0312 VRB20G30KT 3SM TSRA=



000
FTUS44 KHUN 020520
TAFHSV
TAF
KHSV 020520Z 0206/0306 VRB05KT P6SM SKC
     FM021700 17009KT P6SM SCT040 BKN100
     FM030000 18010KT P6SM VCTS SCT030CB OVC070=



000
FTUS44 KHUN 020520
TAFMSL
TAF
KMSL 020520Z 0206/0306 VRB05KT P6SM SKC
     FM021200 17009KT P6SM SCT040 BKN100
     FM021600 17009KT P6SM VCTS SCT030CB OVC070
     FM030500 20010G15KT 5SM -TSRA OVC030CB=



000
FTUS44 KHUN 020520
TAFMSL
TAF
KMSL 020520Z 0206/0306 VRB05KT P6SM SKC
     FM021200 17009KT P6SM SCT040 BKN100
     FM021600 17009KT P6SM VCTS SCT030CB OVC070
     FM030500 20010G15KT 5SM -TSRA OVC030CB=



000
FTUS44 KHUN 020520
TAFHSV
TAF
KHSV 020520Z 0206/0306 VRB05KT P6SM SKC
     FM021700 17009KT P6SM SCT040 BKN100
     FM030000 18010KT P6SM VCTS SCT030CB OVC070=



000
FTUS44 KHUN 012320
TAFHSV
TAF
KHSV 012320Z 0200/0224 VRB03KT P6SM FEW070
     FM020200 14002KT P6SM SKC
     FM021700 17007KT P6SM SCT040 BKN100=



000
FTUS44 KHUN 012320
TAFMSL
TAF
KMSL 012320Z 0200/0224 VRB02KT P6SM SCT070
     FM020200 14002KT P6SM SKC
     FM021600 17005KT P6SM VCTS SCT030CB BKN070=



000
FTUS44 KHUN 012320
TAFMSL
TAF
KMSL 012320Z 0200/0224 VRB02KT P6SM SCT070
     FM020200 14002KT P6SM SKC
     FM021600 17005KT P6SM VCTS SCT030CB BKN070=



000
FTUS44 KHUN 012320
TAFHSV
TAF
KHSV 012320Z 0200/0224 VRB03KT P6SM FEW070
     FM020200 14002KT P6SM SKC
     FM021700 17007KT P6SM SCT040 BKN100=



000
FTUS44 KHUN 011720
TAFMSL
TAF
KMSL 011720Z 0118/0218 VRB03KT P6SM SCT050 SCT250
     FM020000 VRB02KT P6SM SKC
     FM021400 17005KT P6SM SCT030 BKN070=



000
FTUS44 KHUN 011720
TAFHSV
TAF
KHSV 011720Z 0118/0218 VRB04KT P6SM SCT030 SCT250
     FM020000 VRB03KT P6SM SKC
     FM021400 17007KT P6SM SCT040 BKN090=



000
FTUS44 KHUN 011720
TAFHSV
TAF
KHSV 011720Z 0118/0218 VRB04KT P6SM SCT030 SCT250
     FM020000 VRB03KT P6SM SKC
     FM021400 17007KT P6SM SCT040 BKN090=



000
FTUS44 KHUN 011720
TAFMSL
TAF
KMSL 011720Z 0118/0218 VRB03KT P6SM SCT050 SCT250
     FM020000 VRB02KT P6SM SKC
     FM021400 17005KT P6SM SCT030 BKN070=



000
FTUS44 KHUN 011120
TAFMSL
TAF
KMSL 011120Z 0112/0212 00000KT P6SM SKC
      TEMPO 0112/0114 4SM BR
     FM011400 19004KT P6SM SCT050
     FM020000 15003KT P6SM SKC=



000
FTUS44 KHUN 011120
TAFHSV
TAF
KHSV 011120Z 0112/0212 00000KT P6SM SCT250
      TEMPO 0112/0114 4SM BR
     FM011400 18004KT P6SM SCT050
     FM020000 14003KT P6SM SKC=



000
FTUS44 KHUN 011120
TAFMSL
TAF
KMSL 011120Z 0112/0212 00000KT P6SM SKC
      TEMPO 0112/0114 4SM BR
     FM011400 19004KT P6SM SCT050
     FM020000 15003KT P6SM SKC=



000
FTUS44 KHUN 010520
TAFHSV
TAF
KHSV 010520Z 0106/0206 00000KT P6SM SCT070
      TEMPO 0110/0114 5SM BR
     FM011600 20005KT P6SM SCT050
     FM020000 VRB03KT P6SM SCT120=



000
FTUS44 KHUN 010520
TAFMSL
TAF
KMSL 010520Z 0106/0206 00000KT P6SM SCT070
      TEMPO 0110/0114 5SM BR
     FM011600 20005KT P6SM SCT050
     FM020000 VRB03KT P6SM SCT120=



000
FTUS44 KHUN 010520
TAFHSV
TAF
KHSV 010520Z 0106/0206 00000KT P6SM SCT070
      TEMPO 0110/0114 5SM BR
     FM011600 20005KT P6SM SCT050
     FM020000 VRB03KT P6SM SCT120=



000
FTUS44 KHUN 010520
TAFMSL
TAF
KMSL 010520Z 0106/0206 00000KT P6SM SCT070
      TEMPO 0110/0114 5SM BR
     FM011600 20005KT P6SM SCT050
     FM020000 VRB03KT P6SM SCT120=



000
FTUS44 KHUN 302321
TAFMSL
TAF
KMSL 302321Z 0100/0124 VRB03KT P6SM SCT250
      TEMPO 0110/0114 5SM BR SCT020
     FM011600 20005KT P6SM SCT050=



000
FTUS44 KHUN 302321
TAFHSV
TAF
KHSV 302321Z 0100/0124 VRB03KT P6SM SCT250
      TEMPO 0110/0114 5SM BR SCT020
     FM011600 20005KT P6SM SCT050=



000
FTUS44 KHUN 302321
TAFHSV
TAF
KHSV 302321Z 0100/0124 VRB03KT P6SM SCT250
      TEMPO 0110/0114 5SM BR SCT020
     FM011600 20005KT P6SM SCT050=



000
FTUS44 KHUN 302321
TAFMSL
TAF
KMSL 302321Z 0100/0124 VRB03KT P6SM SCT250
      TEMPO 0110/0114 5SM BR SCT020
     FM011600 20005KT P6SM SCT050=



000
FTUS44 KHUN 301720
TAFMSL
TAF
KMSL 301720Z 3018/0118 VRB03KT P6SM SCT030
     FM010100 VRB03KT P6SM SCT250
      TEMPO 0110/0113 5SM BR
     FM011500 15005KT P6SM SCT250=



000
FTUS44 KHUN 301720
TAFMSL
TAF
KMSL 301720Z 3018/0118 VRB03KT P6SM SCT030
     FM010100 VRB03KT P6SM SCT250
      TEMPO 0110/0113 5SM BR
     FM011500 15005KT P6SM SCT250=



000
FTUS44 KHUN 301720
TAFHSV
TAF
KHSV 301720Z 3018/0118 VRB03KT P6SM SCT030
     FM010100 VRB02KT P6SM SCT250
      TEMPO 0110/0113 5SM BR
     FM011500 16004KT P6SM SCT250=



000
FTUS44 KHUN 301720
TAFHSV
TAF
KHSV 301720Z 3018/0118 VRB03KT P6SM SCT030
     FM010100 VRB02KT P6SM SCT250
      TEMPO 0110/0113 5SM BR
     FM011500 16004KT P6SM SCT250=



000
FTUS44 KHUN 301625 AAB
TAFHSV
TAF AMD
KHSV 301625Z 3016/0112 VRB02KT P6SM SCT009
     FM301800 VRB03KT P6SM SCT015
     FM302300 VRB03KT P6SM SCT250=



000
FTUS44 KHUN 301625 AAB
TAFHSV
TAF AMD
KHSV 301625Z 3016/0112 VRB02KT P6SM SCT009
     FM301800 VRB03KT P6SM SCT015
     FM302300 VRB03KT P6SM SCT250=



000
FTUS44 KHUN 301420 AAA
TAFHSV
TAF AMD
KHSV 301420Z 3014/0112 00000KT 5SM BR BKN004
     FM301600 VRB02KT 6SM BR BKN006
     FM301700 VRB03KT P6SM SCT015
     FM302300 VRB03KT P6SM SCT250=



000
FTUS44 KHUN 301420 AAA
TAFHSV
TAF AMD
KHSV 301420Z 3014/0112 00000KT 5SM BR BKN004
     FM301600 VRB02KT 6SM BR BKN006
     FM301700 VRB03KT P6SM SCT015
     FM302300 VRB03KT P6SM SCT250=



000
FTUS44 KHUN 301306 AAA
TAFMSL
TAF AMD
KMSL 301306Z 3013/0112 VRB02KT P6SM SCT008
     FM301500 VRB03KT P6SM SCT040 SCT250
     FM302300 VRB03KT P6SM SCT250=



000
FTUS44 KHUN 301306 AAA
TAFMSL
TAF AMD
KMSL 301306Z 3013/0112 VRB02KT P6SM SCT008
     FM301500 VRB03KT P6SM SCT040 SCT250
     FM302300 VRB03KT P6SM SCT250=



000
FTUS44 KHUN 301148 CCA
TAFMSL
TAF COR
KMSL 301148Z 3012/0112 VRB03KT 3SM BR SKC
     FM301300 VRB03KT 6SM BR BKN008
     FM301500 VRB03KT P6SM SCT040 SCT250
     FM302300 VRB03KT P6SM SCT250=



000
FTUS44 KHUN 301148 CCA
TAFHSV
TAF COR
KHSV 301148Z 3012/0112 VRB03KT 6SM BR BKN008
     FM301500 VRB03KT P6SM SCT040 SCT250
     FM302300 VRB03KT P6SM SCT250=



000
FTUS44 KHUN 301148 CCA
TAFHSV
TAF COR
KHSV 301148Z 3012/0112 VRB03KT 6SM BR BKN008
     FM301500 VRB03KT P6SM SCT040 SCT250
     FM302300 VRB03KT P6SM SCT250=



000
FTUS44 KHUN 301148 CCA
TAFMSL
TAF COR
KMSL 301148Z 3012/0112 VRB03KT 3SM BR SKC
     FM301300 VRB03KT 6SM BR BKN008
     FM301500 VRB03KT P6SM SCT040 SCT250
     FM302300 VRB03KT P6SM SCT250=



000
FTUS44 KHUN 301140
TAFHSV
TAF
KHSV 301140Z 3012/0112 VRB03KT 6SM BR BKN008
     FM301400 VRB03KT P6SM SCT040 SCT250
     FM302300 VRB03KT P6SM SCT250=



000
FTUS44 KHUN 301140
TAFMSL
TAF
KMSL 301140Z 3012/0112 VRB03KT P6SM SKC
     FM301400 VRB03KT P6SM SCT040 SCT250
     FM302300 VRB03KT P6SM SCT250=



000
FTUS44 KHUN 301140
TAFMSL
TAF
KMSL 301140Z 3012/0112 VRB03KT P6SM SKC
     FM301400 VRB03KT P6SM SCT040 SCT250
     FM302300 VRB03KT P6SM SCT250=



000
FTUS44 KHUN 301140
TAFHSV
TAF
KHSV 301140Z 3012/0112 VRB03KT 6SM BR BKN008
     FM301400 VRB03KT P6SM SCT040 SCT250
     FM302300 VRB03KT P6SM SCT250=



000
FTUS44 KHUN 300520
TAFHSV
TAF
KHSV 300520Z 3006/0106 00000KT P6SM SKC
      TEMPO 3010/3014 5SM BR SKC
     FM301600 VRB03KT P6SM SCT040
     FM010000 00000KT P6SM SKC=



000
FTUS44 KHUN 300520
TAFMSL
TAF
KMSL 300520Z 3006/0106 00000KT P6SM SKC
      TEMPO 3010/3014 3SM BR SKC
     FM301600 VRB03KT P6SM SCT040
     FM010000 00000KT P6SM SKC=



000
FTUS44 KHUN 300520
TAFMSL
TAF
KMSL 300520Z 3006/0106 00000KT P6SM SKC
      TEMPO 3010/3014 3SM BR SKC
     FM301600 VRB03KT P6SM SCT040
     FM010000 00000KT P6SM SKC=



000
FTUS44 KHUN 300520
TAFHSV
TAF
KHSV 300520Z 3006/0106 00000KT P6SM SKC
      TEMPO 3010/3014 5SM BR SKC
     FM301600 VRB03KT P6SM SCT040
     FM010000 00000KT P6SM SKC=



000
FTUS44 KHUN 292300
TAFHSV
TAF
KHSV 292321Z 3000/3024 06003KT P6SM SKC
     FM300900 10002KT 4SM BR SKC
     FM301400 02006KT P6SM SKC=



000
FTUS44 KHUN 292300
TAFMSL
TAF
KMSL 292321Z 3000/3024 05003KT P6SM SKC
     FM300700 00000KT 4SM BR SKC
     FM301100 00000KT 2SM BR SKC
     FM301300 00000KT 4SM BR SKC
     FM301400 04005KT P6SM SKC=



000
FTUS44 KHUN 292300
TAFMSL
TAF
KMSL 292321Z 3000/3024 05003KT P6SM SKC
     FM300700 00000KT 4SM BR SKC
     FM301100 00000KT 2SM BR SKC
     FM301300 00000KT 4SM BR SKC
     FM301400 04005KT P6SM SKC=



000
FTUS44 KHUN 292300
TAFHSV
TAF
KHSV 292321Z 3000/3024 06003KT P6SM SKC
     FM300900 10002KT 4SM BR SKC
     FM301400 02006KT P6SM SKC=



000
FTUS44 KHUN 291700
TAFMSL
TAF
KMSL 291722Z 2918/3018 03005KT P6SM SCT040
     FM300000 05003KT P6SM SKC
     FM300800 00000KT 4SM BR SKC
     FM301000 00000KT 2SM BR SKC
     FM301300 00000KT 4SM BR SKC
     FM301400 00000KT P6SM SKC=



000
FTUS44 KHUN 291700
TAFHSV
TAF
KHSV 291722Z 2918/3018 02006KT P6SM SCT035
     FM300000 04003KT P6SM SKC
     FM300900 00000KT 4SM BR SKC
     FM301400 VRB03KT P6SM SKC=



000
FTUS44 KHUN 291700
TAFMSL
TAF
KMSL 291722Z 2918/3018 03005KT P6SM SCT040
     FM300000 05003KT P6SM SKC
     FM300800 00000KT 4SM BR SKC
     FM301000 00000KT 2SM BR SKC
     FM301300 00000KT 4SM BR SKC
     FM301400 00000KT P6SM SKC=



000
FTUS44 KHUN 291700
TAFHSV
TAF
KHSV 291722Z 2918/3018 02006KT P6SM SCT035
     FM300000 04003KT P6SM SKC
     FM300900 00000KT 4SM BR SKC
     FM301400 VRB03KT P6SM SKC=



000
FTUS44 KHUN 291700
TAFHSV
TAF
KHSV 291720Z 2918/3018 02008KT P6SM SCT040
     FM300000 02004KT P6SM FEW035
     FM300600 VRB02KT 4SM BR FEW035=



000
FTUS44 KHUN 291700
TAFMSL
TAF
KMSL 291720Z 2918/3018 11006KT P6SM SCT025 BKN040
     FM292100 02006KT P6SM FEW100
     FM300000 02004KT P6SM FEW035
     FM300600 VRB02KT 4SM BR FEW035=



000
FTUS44 KHUN 291700
TAFMSL
TAF
KMSL 291720Z 2918/3018 11006KT P6SM SCT025 BKN040
     FM292100 02006KT P6SM FEW100
     FM300000 02004KT P6SM FEW035
     FM300600 VRB02KT 4SM BR FEW035=



000
FTUS44 KHUN 291600 AAA
TAFMSL
TAF AMD
KMSL 291646Z 2917/3012 11006KT P6SM SCT025 BKN040
     FM292100 02006KT P6SM FEW100
     FM300000 02004KT P6SM FEW035
     FM300600 VRB02KT 4SM BR FEW035=



000
FTUS44 KHUN 291600 AAA
TAFMSL
TAF AMD
KMSL 291646Z 2917/3012 11006KT P6SM SCT025 BKN040
     FM292100 02006KT P6SM FEW100
     FM300000 02004KT P6SM FEW035
     FM300600 VRB02KT 4SM BR FEW035=



    US Dept of Commerce
    National Oceanic and Atmospheric Administration
    National Weather Service
    1325 East West Highway
    Silver Spring, MD 20910
    Page Author: NWS Internet Services Team
Disclaimer
Information Quality
Credits
Glossary
Privacy Policy
Freedom of Information Act (FOIA)
About Us
Career Opportunities